createdAt,value
2023-01-20T00:00:43.398Z,100346.97
2023-01-20T00:03:09.967Z,100356.47
2023-01-20T00:05:37.855Z,100350.41
2023-01-20T00:08:05.130Z,100358.22
2023-01-20T00:10:31.669Z,100359.06
2023-01-20T00:12:58.216Z,100360.06
2023-01-20T00:15:24.751Z,100361.75
2023-01-20T00:17:51.354Z,100359.31
2023-01-20T00:20:17.968Z,100364.44
2023-01-20T00:22:45.937Z,100353.50
2023-01-20T00:25:12.941Z,100366.13
2023-01-20T00:27:39.731Z,100367.69
2023-01-20T00:30:07.784Z,100366.97
2023-01-20T00:32:37.218Z,100356.97
2023-01-20T00:35:04.350Z,100368.72
2023-01-20T00:37:31.055Z,100370.53
2023-01-20T00:39:58.923Z,100373.81
2023-01-20T00:42:25.508Z,100380.94
2023-01-20T00:44:52.086Z,100377.75
2023-01-20T00:47:18.688Z,100384.78
2023-01-20T00:49:45.416Z,100393.50
2023-01-20T00:52:12.090Z,100391.81
2023-01-20T00:54:38.635Z,100393.50
2023-01-20T00:57:06.870Z,100392.50
2023-01-20T00:59:33.405Z,100396.78
2023-01-20T01:02:00.054Z,100396.69
2023-01-20T01:04:26.716Z,100394.94
2023-01-20T01:06:53.466Z,100399.16
2023-01-20T01:09:20.382Z,100407.72
2023-01-20T01:11:46.987Z,100401.56
2023-01-20T01:14:15.380Z,100405.00
2023-01-20T01:16:42.087Z,100406.75
2023-01-20T01:19:08.625Z,100409.53
2023-01-20T01:21:35.248Z,100415.50
2023-01-20T01:24:01.801Z,100384.25
2023-01-20T01:26:28.447Z,100424.22
2023-01-20T01:28:55.069Z,100392.13
2023-01-20T01:31:23.177Z,100425.97
2023-01-20T01:33:49.720Z,100424.97
2023-01-20T01:36:17.253Z,100437.97
2023-01-20T01:38:44.385Z,100420.84
2023-01-20T01:41:12.758Z,100416.28
2023-01-20T01:43:40.037Z,100436.31
2023-01-20T01:46:06.964Z,100419.78
2023-01-20T01:48:38.920Z,100441.66
2023-01-20T01:51:07.362Z,100437.53
2023-01-20T01:53:39.435Z,100441.66
2023-01-20T01:56:06.775Z,100447.03
2023-01-20T01:58:36.797Z,100447.34
2023-01-20T02:01:04.049Z,100404.06
2023-01-20T02:03:40.125Z,100458.19
2023-01-20T02:06:07.422Z,100440.53
2023-01-20T02:08:34.194Z,100448.88
2023-01-20T02:11:00.810Z,100450.56
2023-01-20T02:13:27.397Z,100449.72
2023-01-20T02:16:04.815Z,100453.97
2023-01-20T02:18:47.766Z,100459.16
2023-01-20T02:21:47.719Z,100453.22
2023-01-20T02:24:49.458Z,100456.66
2023-01-20T02:27:24.852Z,100466.22
2023-01-20T02:30:34.965Z,100458.41
2023-01-20T02:33:10.167Z,100460.94
2023-01-20T02:35:41.907Z,100462.16
2023-01-20T02:38:16.387Z,100449.00
2023-01-20T02:40:53.931Z,100473.59
2023-01-20T02:43:30.351Z,100475.53
2023-01-20T02:46:02.841Z,100478.19
2023-01-20T02:48:36.681Z,100480.03
2023-01-20T02:51:09.684Z,100486.06
2023-01-20T02:53:41.624Z,100427.75
2023-01-20T02:56:10.947Z,100483.25
2023-01-20T02:58:42.126Z,100491.78
2023-01-20T03:01:13.080Z,100492.63
2023-01-20T03:03:46.449Z,100498.53
2023-01-20T03:06:17.434Z,100498.59
2023-01-20T03:08:47.314Z,100504.59
2023-01-20T03:11:14.374Z,100492.81
2023-01-20T03:13:46.373Z,100507.72
2023-01-20T03:16:14.900Z,100507.06
2023-01-20T03:18:43.031Z,100502.81
2023-01-20T03:21:10.766Z,100513.13
2023-01-20T03:23:40.261Z,100495.34
2023-01-20T03:26:09.032Z,100495.72
2023-01-20T03:28:35.651Z,100504.19
2023-01-20T03:31:10.708Z,100515.34
2023-01-20T03:33:37.580Z,100513.59
2023-01-20T03:36:06.406Z,100513.53
2023-01-20T03:38:33.148Z,100522.25
2023-01-20T03:41:07.457Z,100489.97
2023-01-20T03:43:43.664Z,100506.72
2023-01-20T03:46:19.240Z,100525.38
2023-01-20T03:48:51.468Z,100539.22
2023-01-20T03:51:27.138Z,100532.09
2023-01-20T03:53:57.433Z,100528.50
2023-01-20T03:56:28.394Z,100535.47
2023-01-20T03:58:59.852Z,100536.75
2023-01-20T04:01:32.547Z,100533.84
2023-01-20T04:04:00.975Z,100543.56
2023-01-20T04:06:30.467Z,100530.09
2023-01-20T04:09:02.454Z,100530.09
2023-01-20T04:11:28.922Z,100545.47
2023-01-20T04:13:55.471Z,100536.69
2023-01-20T04:16:23.432Z,100537.47
2023-01-20T04:18:51.716Z,100525.63
2023-01-20T04:21:25.067Z,100536.56
2023-01-20T04:23:58.634Z,100536.25
2023-01-20T04:26:25.238Z,100540.59
2023-01-20T04:28:51.814Z,100526.59
2023-01-20T04:31:30.232Z,100551.91
2023-01-20T04:33:58.002Z,100548.41
2023-01-20T04:36:24.773Z,100542.41
2023-01-20T04:38:52.771Z,100553.28
2023-01-20T04:41:19.598Z,100552.28
2023-01-20T04:43:46.744Z,100555.13
2023-01-20T04:46:13.758Z,100558.78
2023-01-20T04:48:40.612Z,100560.91
2023-01-20T04:51:07.967Z,100558.25
2023-01-20T04:53:35.069Z,100567.94
2023-01-20T04:56:03.024Z,100569.78
2023-01-20T04:58:29.649Z,100568.16
2023-01-20T05:00:56.379Z,100566.66
2023-01-20T05:03:23.007Z,100570.22
2023-01-20T05:05:53.130Z,100562.66
2023-01-20T05:08:19.756Z,100574.03
2023-01-20T05:10:46.439Z,100563.00
2023-01-20T05:13:15.570Z,100562.47
2023-01-20T05:15:43.639Z,100571.16
2023-01-20T05:18:10.246Z,100581.50
2023-01-20T05:20:36.792Z,100572.25
2023-01-20T05:23:03.340Z,100576.38
2023-01-20T05:25:29.875Z,100578.22
2023-01-20T05:27:56.398Z,100580.81
2023-01-20T05:30:24.296Z,100579.41
2023-01-20T05:32:50.918Z,100578.00
2023-01-20T05:35:18.051Z,100595.06
2023-01-20T05:37:44.576Z,100558.03
2023-01-20T05:40:12.570Z,100591.84
2023-01-20T05:42:39.435Z,100591.91
2023-01-20T05:45:07.238Z,100596.81
2023-01-20T05:47:35.135Z,100586.22
2023-01-20T05:50:01.650Z,100604.19
2023-01-20T05:52:28.151Z,100609.47
2023-01-20T05:54:54.680Z,100617.19
2023-01-20T05:57:23.832Z,100622.28
2023-01-20T05:59:50.379Z,100618.03
2023-01-20T06:02:17.119Z,100614.78
2023-01-20T06:04:44.999Z,100608.09
2023-01-20T06:07:11.718Z,100631.97
2023-01-20T06:09:38.262Z,100630.28
2023-01-20T06:12:05.430Z,100629.22
2023-01-20T06:14:31.995Z,100615.63
2023-01-20T06:16:58.537Z,100629.78
2023-01-20T06:19:25.157Z,100632.53
2023-01-20T06:21:53.208Z,100633.34
2023-01-20T06:24:19.747Z,100639.28
2023-01-20T06:26:46.255Z,100644.47
2023-01-20T06:29:12.775Z,100639.16
2023-01-20T06:31:39.475Z,100642.72
2023-01-20T06:34:06.019Z,100651.91
2023-01-20T06:36:32.539Z,100649.38
2023-01-20T06:39:00.644Z,100644.25
2023-01-20T06:41:27.196Z,100651.97
2023-01-20T06:43:53.736Z,100653.72
2023-01-20T06:46:20.414Z,100655.34
2023-01-20T06:48:47.003Z,100660.56
2023-01-20T06:51:15.793Z,100661.47
2023-01-20T06:53:42.941Z,100655.00
2023-01-20T06:56:12.713Z,100664.75
2023-01-20T06:58:39.686Z,100678.75
2023-01-20T07:01:08.828Z,100660.13
2023-01-20T07:03:35.770Z,100680.44
2023-01-20T07:06:05.431Z,100680.34
2023-01-20T07:08:32.063Z,100682.13
2023-01-20T07:10:58.707Z,100682.81
2023-01-20T07:13:26.623Z,100689.75
2023-01-20T07:15:53.260Z,100694.16
2023-01-20T07:18:19.802Z,100698.41
2023-01-20T07:20:46.361Z,100693.25
2023-01-20T07:23:12.947Z,100695.81
2023-01-20T07:25:39.464Z,100703.53
2023-01-20T07:28:05.971Z,100700.72
2023-01-20T07:30:33.889Z,100707.59
2023-01-20T07:33:00.609Z,100705.78
2023-01-20T07:35:27.255Z,100711.03
2023-01-20T07:37:53.781Z,100713.72
2023-01-20T07:40:20.477Z,100715.41
2023-01-20T07:42:47.048Z,100718.78
2023-01-20T07:45:14.083Z,100703.47
2023-01-20T07:47:42.120Z,100718.63
2023-01-20T07:50:09.727Z,100724.66
2023-01-20T07:52:36.261Z,100720.16
2023-01-20T07:55:02.880Z,100726.13
2023-01-20T07:57:29.516Z,100725.34
2023-01-20T07:59:56.093Z,100735.75
2023-01-20T08:02:22.648Z,100729.72
2023-01-20T08:04:50.610Z,100739.28
2023-01-20T08:07:17.189Z,100743.47
2023-01-20T08:09:44.011Z,100738.44
2023-01-20T08:12:10.567Z,100744.13
2023-01-20T08:14:37.938Z,100747.44
2023-01-20T08:17:04.613Z,100733.16
2023-01-20T08:19:31.142Z,100747.44
2023-01-20T08:21:59.026Z,100755.78
2023-01-20T08:24:25.649Z,100761.00
2023-01-20T08:26:52.309Z,100768.69
2023-01-20T08:29:19.193Z,100768.56
2023-01-20T08:31:45.897Z,100769.34
2023-01-20T08:34:12.487Z,100770.00
2023-01-20T08:36:40.789Z,100776.59
2023-01-20T08:39:13.064Z,100773.00
2023-01-20T08:41:42.800Z,100776.31
2023-01-20T08:44:10.530Z,100781.22
2023-01-20T08:46:41.214Z,100776.09
2023-01-20T08:49:09.008Z,100782.75
2023-01-20T08:51:35.833Z,100773.50
2023-01-20T08:54:02.705Z,100790.28
2023-01-20T08:56:31.369Z,100789.28
2023-01-20T08:58:58.676Z,100786.41
2023-01-20T09:01:28.068Z,100795.75
2023-01-20T09:04:05.472Z,100792.22
2023-01-20T09:06:40.913Z,100798.13
2023-01-20T09:09:07.808Z,100790.19
2023-01-20T09:11:36.021Z,100796.84
2023-01-20T09:14:02.604Z,100797.63
2023-01-20T09:16:29.220Z,100795.66
2023-01-20T09:18:55.790Z,100791.91
2023-01-20T09:21:23.677Z,100793.38
2023-01-20T09:23:50.239Z,100789.63
2023-01-20T09:26:29.790Z,100793.59
2023-01-20T09:29:02.787Z,100796.81
2023-01-20T09:31:29.415Z,100798.28
2023-01-20T09:33:55.969Z,100798.81
2023-01-20T09:36:22.487Z,100800.88
2023-01-20T09:38:49.084Z,100801.34
2023-01-20T09:41:18.267Z,100798.34
2023-01-20T09:43:54.115Z,100784.41
2023-01-20T09:46:31.229Z,100800.34
2023-01-20T09:49:08.060Z,100804.31
2023-01-20T09:51:46.115Z,100788.81
2023-01-20T09:54:20.079Z,100804.06
2023-01-20T09:56:49.382Z,100809.81
2023-01-20T09:59:22.851Z,100810.25
2023-01-20T10:01:54.675Z,100810.59
2023-01-20T10:04:27.733Z,100814.19
2023-01-20T10:07:02.965Z,100810.88
2023-01-20T10:09:36.187Z,100796.78
2023-01-20T10:12:08.099Z,100812.56
2023-01-20T10:14:40.468Z,100807.69
2023-01-20T10:17:16.257Z,100813.41
2023-01-20T10:19:49.399Z,100807.75
2023-01-20T10:22:20.700Z,100804.41
2023-01-20T10:24:52.914Z,100804.56
2023-01-20T10:27:19.481Z,100793.69
2023-01-20T10:29:51.807Z,100806.38
2023-01-20T10:32:24.572Z,100806.50
2023-01-20T10:34:56.425Z,100809.84
2023-01-20T10:37:24.261Z,100809.69
2023-01-20T10:39:55.890Z,100802.88
2023-01-20T10:42:22.575Z,100805.66
2023-01-20T10:44:52.378Z,100801.50
2023-01-20T10:47:25.348Z,100776.84
2023-01-20T10:50:09.539Z,100797.31
2023-01-20T10:53:06.062Z,100801.34
2023-01-20T10:55:43.254Z,100801.19
2023-01-20T10:58:18.236Z,100805.72
2023-01-20T11:00:45.050Z,100806.31
2023-01-20T11:03:17.712Z,100802.47
2023-01-20T11:05:46.515Z,100784.94
2023-01-20T11:08:18.359Z,100802.72
2023-01-20T11:10:46.813Z,100798.88
2023-01-20T11:13:13.477Z,100797.78
2023-01-20T11:15:43.847Z,100795.81
2023-01-20T11:18:23.014Z,100772.50
2023-01-20T11:20:52.012Z,100800.38
2023-01-20T11:23:23.663Z,100801.56
2023-01-20T11:25:56.264Z,100799.97
2023-01-20T11:28:23.859Z,100800.81
2023-01-20T11:30:55.417Z,100806.22
2023-01-20T11:33:25.939Z,100787.59
2023-01-20T11:36:01.261Z,100804.28
2023-01-20T11:38:30.382Z,100805.78
2023-01-20T11:40:58.116Z,100801.41
2023-01-20T11:43:28.777Z,100805.19
2023-01-20T11:46:13.556Z,100796.59
2023-01-20T11:48:41.889Z,100795.94
2023-01-20T11:51:19.785Z,100797.00
2023-01-20T11:53:46.774Z,100796.78
2023-01-20T11:56:19.744Z,100804.75
2023-01-20T11:58:51.822Z,100793.22
2023-01-20T12:01:23.295Z,100796.78
2023-01-20T12:04:17.651Z,100798.22
2023-01-20T12:06:51.578Z,100798.22
2023-01-20T12:09:23.028Z,100793.84
2023-01-20T12:11:55.990Z,100783.47
2023-01-20T12:14:27.524Z,100791.56
2023-01-20T12:17:12.919Z,100792.22
2023-01-20T12:19:53.702Z,100776.00
2023-01-20T12:22:25.748Z,100785.50
2023-01-20T12:24:56.217Z,100785.88
2023-01-20T12:27:26.985Z,100783.56
2023-01-20T12:29:58.325Z,100780.03
2023-01-20T12:32:24.956Z,100786.94
2023-01-20T12:34:52.911Z,100785.94
2023-01-20T12:37:28.655Z,100789.22
2023-01-20T12:40:18.862Z,100798.47
2023-01-20T12:43:12.810Z,100797.13
2023-01-20T12:45:53.080Z,100804.28
2023-01-20T12:48:34.691Z,100801.41
2023-01-20T12:51:14.650Z,100801.59
2023-01-20T12:54:02.947Z,100800.34
2023-01-20T12:56:40.018Z,100778.34
2023-01-20T12:59:17.041Z,100806.03
2023-01-20T13:02:08.051Z,100807.22
2023-01-20T13:05:06.377Z,100807.63
2023-01-20T13:07:52.442Z,100817.47
2023-01-20T13:10:33.065Z,100813.69
2023-01-20T13:13:10.811Z,100807.03
2023-01-20T13:15:42.659Z,100819.06
2023-01-20T13:18:21.394Z,100816.88
2023-01-20T13:20:48.909Z,100819.50
2023-01-20T13:23:23.441Z,100818.56
2023-01-20T13:25:51.504Z,100779.50
2023-01-20T13:28:21.150Z,100815.19
2023-01-20T13:30:49.614Z,100821.94
2023-01-20T13:33:33.019Z,100751.81
2023-01-20T13:36:00.811Z,100754.09
2023-01-20T13:38:30.320Z,100824.22
2023-01-20T13:40:58.302Z,100807.69
2023-01-20T13:43:46.662Z,100824.56
2023-01-20T13:46:44.979Z,100823.31
2023-01-20T13:49:14.945Z,100820.38
2023-01-20T13:51:46.162Z,100826.16
2023-01-20T13:54:52.329Z,100827.91
2023-01-20T13:57:47.459Z,100828.59
2023-01-20T14:00:19.454Z,100829.84
2023-01-20T14:02:47.911Z,100836.25
2023-01-20T14:05:27.024Z,100832.97
2023-01-20T14:07:54.250Z,100837.66
2023-01-20T14:10:20.880Z,100846.56
2023-01-20T14:12:49.226Z,100832.72
2023-01-20T14:15:34.972Z,100847.72
2023-01-20T14:18:02.460Z,100855.84
2023-01-20T14:20:30.086Z,100856.88
2023-01-20T14:23:25.091Z,100861.78
2023-01-20T14:26:08.239Z,100861.56
2023-01-20T14:28:41.135Z,100866.75
2023-01-20T14:31:34.438Z,100865.25
2023-01-20T14:34:18.475Z,100861.50
2023-01-20T14:36:45.992Z,100869.31
2023-01-20T14:39:19.755Z,100861.13
2023-01-20T14:41:47.940Z,100880.81
2023-01-20T14:44:19.498Z,100835.28
2023-01-20T14:46:48.296Z,100860.09
2023-01-20T14:49:17.151Z,100880.56
2023-01-20T14:51:46.097Z,100878.34
2023-01-20T14:54:39.156Z,100877.25
2023-01-20T14:57:20.096Z,100893.84
2023-01-20T14:59:59.043Z,100887.47
2023-01-20T15:02:29.785Z,100890.63
2023-01-20T15:04:56.488Z,100892.84
2023-01-20T15:07:24.437Z,100882.00
2023-01-20T15:09:55.185Z,100895.56
2023-01-20T15:12:38.948Z,100899.16
2023-01-20T15:15:23.286Z,100894.94
2023-01-20T15:18:20.634Z,100901.06
2023-01-20T15:20:50.198Z,100904.56
2023-01-20T15:23:30.094Z,100905.91
2023-01-20T15:26:06.050Z,100909.78
2023-01-20T15:28:37.368Z,100903.09
2023-01-20T15:31:05.549Z,100913.94
2023-01-20T15:33:32.190Z,100919.56
2023-01-20T15:36:00.634Z,100909.16
2023-01-20T15:38:30.270Z,100923.34
2023-01-20T15:40:56.843Z,100928.84
2023-01-20T15:43:23.458Z,100885.81
2023-01-20T15:45:50.082Z,100886.56
2023-01-20T15:48:19.936Z,100936.50
2023-01-20T15:50:47.327Z,100935.81
2023-01-20T15:53:14.442Z,100945.75
2023-01-20T15:55:46.847Z,100941.56
2023-01-20T15:58:24.007Z,100950.28
2023-01-20T16:00:51.052Z,100933.63
2023-01-20T16:03:18.946Z,100949.59
2023-01-20T16:05:48.092Z,100919.56
2023-01-20T16:08:16.051Z,100965.34
2023-01-20T16:10:43.014Z,100931.72
2023-01-20T16:13:09.902Z,100969.91
2023-01-20T16:15:37.123Z,100969.91
2023-01-20T16:18:04.097Z,100970.81
2023-01-20T16:20:35.147Z,100977.06
2023-01-20T16:23:01.862Z,100975.22
2023-01-20T16:25:29.336Z,100978.81
2023-01-20T16:27:57.098Z,100938.72
2023-01-20T16:30:23.835Z,100980.78
2023-01-20T16:32:50.840Z,100970.75
2023-01-20T16:35:19.051Z,100993.63
2023-01-20T16:37:47.663Z,100992.66
2023-01-20T16:40:15.371Z,100953.63
2023-01-20T16:42:42.293Z,100994.44
2023-01-20T16:45:20.869Z,100997.88
2023-01-20T16:47:47.875Z,100999.75
2023-01-20T16:50:15.173Z,101001.31
2023-01-20T16:52:42.164Z,101004.41
2023-01-20T16:55:13.338Z,101004.47
2023-01-20T16:57:40.307Z,101014.06
2023-01-20T17:00:08.933Z,101016.78
2023-01-20T17:02:35.675Z,101020.16
2023-01-20T17:05:02.230Z,100969.25
2023-01-20T17:07:28.868Z,100977.06
2023-01-20T17:09:55.398Z,101017.41
2023-01-20T17:12:23.413Z,101026.00
2023-01-20T17:14:50.105Z,101027.19
2023-01-20T17:17:16.728Z,101029.91
2023-01-20T17:19:43.269Z,100984.06
2023-01-20T17:22:09.956Z,101022.69
2023-01-20T17:24:36.757Z,101044.13
2023-01-20T17:27:03.531Z,101042.38
2023-01-20T17:29:31.487Z,101052.03
2023-01-20T17:31:58.155Z,101057.38
2023-01-20T17:34:25.118Z,101061.13
2023-01-20T17:36:51.767Z,101064.88
2023-01-20T17:39:18.286Z,101064.22
2023-01-20T17:41:44.898Z,101062.47
2023-01-20T17:44:12.465Z,101066.81
2023-01-20T17:46:40.461Z,101068.38
2023-01-20T17:49:07.275Z,101072.97
2023-01-20T17:51:34.253Z,101074.81
2023-01-20T17:54:03.517Z,101076.56
2023-01-20T17:56:30.970Z,101064.78
2023-01-20T17:58:57.852Z,101075.78
2023-01-20T18:01:26.695Z,101082.63
2023-01-20T18:03:56.421Z,101093.75
2023-01-20T18:06:24.544Z,101092.09
2023-01-20T18:08:53.395Z,101087.81
2023-01-20T18:11:20.601Z,101088.00
2023-01-20T18:13:48.423Z,101097.53
2023-01-20T18:16:16.687Z,101108.88
2023-01-20T18:18:44.652Z,101110.63
2023-01-20T18:21:14.656Z,101116.72
2023-01-20T18:23:42.396Z,101121.97
2023-01-20T18:26:10.967Z,101124.75
2023-01-20T18:28:37.992Z,101119.75
2023-01-20T18:31:06.856Z,101065.75
2023-01-20T18:33:33.689Z,101114.16
2023-01-20T18:36:02.146Z,101128.00
2023-01-20T18:38:30.025Z,101131.69
2023-01-20T18:40:56.551Z,101101.47
2023-01-20T18:43:23.169Z,101134.69
2023-01-20T18:45:52.438Z,101133.97
2023-01-20T18:48:18.963Z,101141.13
2023-01-20T18:50:45.540Z,101094.22
2023-01-20T18:53:12.115Z,101151.00
2023-01-20T18:55:39.983Z,101156.34
2023-01-20T18:58:06.528Z,101156.34
2023-01-20T19:00:33.054Z,101163.19
2023-01-20T19:02:59.587Z,101147.19
2023-01-20T19:05:26.456Z,101168.50
2023-01-20T19:07:53.002Z,101163.47
2023-01-20T19:10:19.632Z,101168.59
2023-01-20T19:12:47.513Z,101162.34
2023-01-20T19:15:14.143Z,101021.19
2023-01-20T19:17:40.664Z,101142.00
2023-01-20T19:20:08.445Z,101174.53
2023-01-20T19:22:34.951Z,101177.16
2023-01-20T19:25:01.457Z,101125.47
2023-01-20T19:27:27.993Z,101179.06
2023-01-20T19:29:55.853Z,101178.25
2023-01-20T19:32:22.358Z,101181.00
2023-01-20T19:34:48.967Z,101186.28
2023-01-20T19:37:15.473Z,101189.00
2023-01-20T19:39:42.024Z,101188.41
2023-01-20T19:42:08.567Z,101191.25
2023-01-20T19:44:35.108Z,101196.47
2023-01-20T19:47:02.973Z,101199.22
2023-01-20T19:49:29.659Z,101200.41
2023-01-20T19:51:56.329Z,101218.69
2023-01-20T19:54:22.988Z,101211.94
2023-01-20T19:56:49.535Z,101209.56
2023-01-20T19:59:16.068Z,101216.59
2023-01-20T20:01:42.640Z,101222.66
2023-01-20T20:04:11.734Z,101225.97
2023-01-20T20:06:39.641Z,101233.03
2023-01-20T20:09:09.385Z,101238.47
2023-01-20T20:11:36.145Z,101239.53
2023-01-20T20:14:04.671Z,101242.13
2023-01-20T20:16:33.168Z,101226.34
2023-01-20T20:19:00.260Z,101239.13
2023-01-20T20:21:28.166Z,101251.22
2023-01-20T20:23:56.464Z,101251.22
2023-01-20T20:26:25.178Z,101258.19
2023-01-20T20:28:52.363Z,101261.84
2023-01-20T20:31:19.648Z,101263.59
2023-01-20T20:33:46.628Z,101263.53
2023-01-20T20:36:13.805Z,101145.78
2023-01-20T20:38:41.843Z,101265.34
2023-01-20T20:41:09.077Z,101272.34
2023-01-20T20:43:36.377Z,101251.34
2023-01-20T20:46:06.342Z,101289.00
2023-01-20T20:48:33.205Z,101287.38
2023-01-20T20:51:04.651Z,101271.34
2023-01-20T20:53:31.285Z,101291.94
2023-01-20T20:55:59.228Z,101304.16
2023-01-20T20:58:25.878Z,101303.09
2023-01-20T21:00:52.442Z,101310.00
2023-01-20T21:03:19.101Z,101296.59
2023-01-20T21:05:46.874Z,101239.78
2023-01-20T21:08:13.469Z,101318.03
2023-01-20T21:10:40.572Z,101316.44
2023-01-20T21:13:08.533Z,101329.50
2023-01-20T21:15:36.520Z,101327.81
2023-01-20T21:18:03.861Z,101332.31
2023-01-20T21:20:30.427Z,101335.75
2023-01-20T21:22:57.027Z,101350.38
2023-01-20T21:25:23.841Z,101346.25
2023-01-20T21:27:50.725Z,101359.25
2023-01-20T21:30:19.262Z,101358.34
2023-01-20T21:32:45.987Z,101370.53
2023-01-20T21:35:12.549Z,101373.31
2023-01-20T21:37:39.269Z,101347.91
2023-01-20T21:40:06.988Z,101374.31
2023-01-20T21:42:33.920Z,101378.72
2023-01-20T21:45:00.441Z,101384.66
2023-01-20T21:47:28.426Z,101383.84
2023-01-20T21:49:54.953Z,101347.44
2023-01-20T21:52:23.006Z,101389.13
2023-01-20T21:54:49.825Z,101380.69
2023-01-20T21:57:16.436Z,101382.44
2023-01-20T21:59:43.199Z,101385.09
2023-01-20T22:02:12.341Z,101391.13
2023-01-20T22:04:40.310Z,101401.25
2023-01-20T22:07:07.133Z,101396.88
2023-01-20T22:09:33.716Z,101374.78
2023-01-20T22:12:00.353Z,101348.63
2023-01-20T22:14:26.912Z,101418.59
2023-01-20T22:16:53.576Z,101413.53
2023-01-20T22:19:20.821Z,101423.94
2023-01-20T22:21:48.804Z,101430.81
2023-01-20T22:24:15.432Z,101430.94
2023-01-20T22:26:42.109Z,101437.97
2023-01-20T22:29:08.648Z,101446.72
2023-01-20T22:31:35.304Z,101450.22
2023-01-20T22:34:04.196Z,101435.81
2023-01-20T22:36:31.331Z,101437.66
2023-01-20T22:38:59.810Z,101459.88
2023-01-20T22:41:26.587Z,101419.00
2023-01-20T22:43:53.810Z,101419.06
2023-01-20T22:46:22.555Z,101464.28
2023-01-20T22:48:49.328Z,101471.06
2023-01-20T22:51:18.207Z,101468.47
2023-01-20T22:53:45.446Z,101472.84
2023-01-20T22:56:16.855Z,101409.25
2023-01-20T22:58:43.661Z,101489.28
2023-01-20T23:01:12.665Z,101488.41
2023-01-20T23:03:39.331Z,101451.88
2023-01-20T23:06:06.254Z,101490.91
2023-01-20T23:08:33.167Z,101478.16
2023-01-20T23:11:01.703Z,101500.44
2023-01-20T23:13:29.728Z,101499.63
2023-01-20T23:15:56.651Z,101496.19
2023-01-20T23:18:24.254Z,101498.91
2023-01-20T23:20:52.321Z,101503.31
2023-01-20T23:23:20.053Z,101511.28
2023-01-20T23:25:47.094Z,101508.84
2023-01-20T23:28:14.311Z,101515.88
2023-01-20T23:30:42.610Z,101517.72
2023-01-20T23:33:10.606Z,101522.97
2023-01-20T23:35:37.432Z,101521.34
2023-01-20T23:38:05.084Z,101528.13
2023-01-20T23:40:32.010Z,101517.13
2023-01-20T23:42:58.672Z,101519.66
2023-01-20T23:45:25.515Z,101541.13
2023-01-20T23:47:53.575Z,101536.72
2023-01-20T23:50:20.243Z,101502.66
2023-01-20T23:52:46.960Z,101547.06
2023-01-20T23:55:13.586Z,101340.00
2023-01-20T23:57:40.241Z,101545.34
